Terminal Aerodrome Forecast
Issued by NWS Corpus Christi, TX

Home | Current Version | Previous Version | Text Only | Print | Product List | Glossary On
Versions: 1 2 3 4 5 6 7 8 9 10 11 12 13 14 15 16 17 18 19 20 21 22 23
536
FTUS44 KCRP 292341
TAFCRP
TAF
KCRP 292341Z 3000/3024 09011KT P6SM SCT025 SCT040 BKN250
     FM300600 04008KT P6SM SCT022 SCT250
      TEMPO 3008/3012 4SM BR BKN020
     FM301800 10011KT P6SM FEW040 SCT250=

USA.gov is the U.S. government's official web portal to all federal, state and local government web resources and services.